sensor_id;sensor_type;location;lat;lon;timestamp;P1;durP1;ratioP1;P2;durP2;ratioP2
56083;SDS011;41958;52.416;13.428;2023-02-18T00:01:48;13.13;;;2.17;;
56083;SDS011;41958;52.416;13.428;2023-02-18T00:04:14;10.23;;;1.60;;
56083;SDS011;41958;52.416;13.428;2023-02-18T00:06:39;8.00;;;1.20;;
56083;SDS011;41958;52.416;13.428;2023-02-18T00:09:04;10.82;;;1.10;;
56083;SDS011;41958;52.416;13.428;2023-02-18T00:11:31;10.07;;;1.33;;
56083;SDS011;41958;52.416;13.428;2023-02-18T00:13:59;10.43;;;1.17;;
56083;SDS011;41958;52.416;13.428;2023-02-18T00:16:28;9.00;;;1.20;;
56083;SDS011;41958;52.416;13.428;2023-02-18T00:18:57;16.30;;;2.08;;
56083;SDS011;41958;52.416;13.428;2023-02-18T00:21:24;10.95;;;1.10;;
56083;SDS011;41958;52.416;13.428;2023-02-18T00:23:50;7.43;;;1.02;;
56083;SDS011;41958;52.416;13.428;2023-02-18T00:26:15;10.98;;;1.20;;
56083;SDS011;41958;52.416;13.428;2023-02-18T00:28:42;12.10;;;1.35;;
56083;SDS011;41958;52.416;13.428;2023-02-18T00:31:08;7.20;;;1.10;;
56083;SDS011;41958;52.416;13.428;2023-02-18T00:33:35;12.90;;;1.83;;
56083;SDS011;41958;52.416;13.428;2023-02-18T00:36:02;10.18;;;1.83;;
56083;SDS011;41958;52.416;13.428;2023-02-18T00:38:28;12.88;;;1.50;;
56083;SDS011;41958;52.416;13.428;2023-02-18T00:40:53;11.82;;;1.50;;
56083;SDS011;41958;52.416;13.428;2023-02-18T00:43:19;8.10;;;1.42;;
56083;SDS011;41958;52.416;13.428;2023-02-18T00:45:44;11.55;;;1.50;;
56083;SDS011;41958;52.416;13.428;2023-02-18T00:48:09;9.98;;;1.13;;
56083;SDS011;41958;52.416;13.428;2023-02-18T00:50:34;12.98;;;1.35;;
56083;SDS011;41958;52.416;13.428;2023-02-18T00:53:00;9.73;;;1.25;;
56083;SDS011;41958;52.416;13.428;2023-02-18T00:55:25;11.95;;;2.00;;
56083;SDS011;41958;52.416;13.428;2023-02-18T00:57:50;11.40;;;1.20;;
56083;SDS011;41958;52.416;13.428;2023-02-18T01:00:15;13.32;;;1.42;;
56083;SDS011;41958;52.416;13.428;2023-02-18T01:02:41;15.48;;;1.20;;
56083;SDS011;41958;52.416;13.428;2023-02-18T01:05:06;10.30;;;1.08;;
56083;SDS011;41958;52.416;13.428;2023-02-18T01:07:31;8.45;;;1.40;;
56083;SDS011;41958;52.416;13.428;2023-02-18T01:09:57;11.68;;;1.40;;
56083;SDS011;41958;52.416;13.428;2023-02-18T01:12:22;8.70;;;1.25;;
56083;SDS011;41958;52.416;13.428;2023-02-18T01:14:47;6.85;;;0.75;;
56083;SDS011;41958;52.416;13.428;2023-02-18T01:17:12;7.80;;;1.45;;
56083;SDS011;41958;52.416;13.428;2023-02-18T01:19:37;12.05;;;1.20;;
56083;SDS011;41958;52.416;13.428;2023-02-18T01:22:03;12.35;;;1.33;;
56083;SDS011;41958;52.416;13.428;2023-02-18T01:24:30;10.73;;;0.88;;
56083;SDS011;41958;52.416;13.428;2023-02-18T01:26:55;8.13;;;1.58;;
56083;SDS011;41958;52.416;13.428;2023-02-18T01:29:21;10.45;;;1.17;;
56083;SDS011;41958;52.416;13.428;2023-02-18T01:31:46;6.57;;;0.90;;
56083;SDS011;41958;52.416;13.428;2023-02-18T01:34:11;7.45;;;1.20;;
56083;SDS011;41958;52.416;13.428;2023-02-18T01:36:37;14.90;;;1.30;;
56083;SDS011;41958;52.416;13.428;2023-02-18T01:39:03;12.95;;;1.63;;
56083;SDS011;41958;52.416;13.428;2023-02-18T01:41:29;9.60;;;0.98;;
56083;SDS011;41958;52.416;13.428;2023-02-18T01:44:14;7.65;;;1.10;;
56083;SDS011;41958;52.416;13.428;2023-02-18T01:46:44;9.18;;;1.05;;
56083;SDS011;41958;52.416;13.428;2023-02-18T01:49:11;6.68;;;0.82;;
56083;SDS011;41958;52.416;13.428;2023-02-18T01:51:49;9.70;;;0.95;;
56083;SDS011;41958;52.416;13.428;2023-02-18T01:54:25;10.93;;;1.02;;
56083;SDS011;41958;52.416;13.428;2023-02-18T01:59:29;5.15;;;0.73;;
56083;SDS011;41958;52.416;13.428;2023-02-18T02:02:02;6.78;;;1.45;;
56083;SDS011;41958;52.416;13.428;2023-02-18T02:04:28;8.65;;;1.35;;
56083;SDS011;41958;52.416;13.428;2023-02-18T02:06:53;8.52;;;1.05;;
56083;SDS011;41958;52.416;13.428;2023-02-18T02:09:19;9.95;;;1.38;;
56083;SDS011;41958;52.416;13.428;2023-02-18T02:14:26;4.55;;;0.80;;
56083;SDS011;41958;52.416;13.428;2023-02-18T02:17:11;9.18;;;1.30;;
56083;SDS011;41958;52.416;13.428;2023-02-18T02:28:33;9.20;;;0.80;;
56083;SDS011;41958;52.416;13.428;2023-02-18T02:31:33;10.10;;;1.20;;
56083;SDS011;41958;52.416;13.428;2023-02-18T02:37:03;8.35;;;1.00;;
56083;SDS011;41958;52.416;13.428;2023-02-18T02:39:48;8.77;;;1.20;;
56083;SDS011;41958;52.416;13.428;2023-02-18T02:42:29;11.77;;;1.00;;
56083;SDS011;41958;52.416;13.428;2023-02-18T02:45:17;14.10;;;1.45;;
56083;SDS011;41958;52.416;13.428;2023-02-18T02:50:58;6.78;;;0.80;;
56083;SDS011;41958;52.416;13.428;2023-02-18T02:53:27;7.93;;;1.25;;
56083;SDS011;41958;52.416;13.428;2023-02-18T02:55:55;7.13;;;1.08;;
56083;SDS011;41958;52.416;13.428;2023-02-18T02:58:21;9.55;;;1.50;;
56083;SDS011;41958;52.416;13.428;2023-02-18T03:00:54;7.35;;;0.98;;
56083;SDS011;41958;52.416;13.428;2023-02-18T03:03:38;9.35;;;0.95;;
56083;SDS011;41958;52.416;13.428;2023-02-18T03:09:45;14.50;;;1.08;;
56083;SDS011;41958;52.416;13.428;2023-02-18T03:12:20;15.52;;;1.30;;
56083;SDS011;41958;52.416;13.428;2023-02-18T03:15:04;6.75;;;1.05;;
56083;SDS011;41958;52.416;13.428;2023-02-18T03:17:40;6.53;;;1.13;;
56083;SDS011;41958;52.416;13.428;2023-02-18T03:20:15;7.72;;;1.05;;
56083;SDS011;41958;52.416;13.428;2023-02-18T03:22:47;10.30;;;1.10;;
56083;SDS011;41958;52.416;13.428;2023-02-18T03:25:15;9.70;;;0.82;;
56083;SDS011;41958;52.416;13.428;2023-02-18T03:27:43;9.93;;;0.98;;
56083;SDS011;41958;52.416;13.428;2023-02-18T03:30:34;7.45;;;0.93;;
56083;SDS011;41958;52.416;13.428;2023-02-18T03:33:04;11.35;;;1.13;;
56083;SDS011;41958;52.416;13.428;2023-02-18T03:35:34;8.07;;;1.50;;
56083;SDS011;41958;52.416;13.428;2023-02-18T03:40:41;6.40;;;0.63;;
56083;SDS011;41958;52.416;13.428;2023-02-18T03:43:06;7.40;;;1.27;;
56083;SDS011;41958;52.416;13.428;2023-02-18T03:45:31;6.25;;;1.02;;
56083;SDS011;41958;52.416;13.428;2023-02-18T03:47:57;7.97;;;0.70;;
56083;SDS011;41958;52.416;13.428;2023-02-18T03:50:22;6.00;;;0.50;;
56083;SDS011;41958;52.416;13.428;2023-02-18T03:52:47;4.40;;;1.05;;
56083;SDS011;41958;52.416;13.428;2023-02-18T03:55:13;7.53;;;0.98;;
56083;SDS011;41958;52.416;13.428;2023-02-18T03:57:38;6.22;;;0.60;;
56083;SDS011;41958;52.416;13.428;2023-02-18T04:00:04;7.97;;;0.80;;
56083;SDS011;41958;52.416;13.428;2023-02-18T04:02:30;9.82;;;0.98;;
56083;SDS011;41958;52.416;13.428;2023-02-18T04:04:56;5.97;;;0.45;;
56083;SDS011;41958;52.416;13.428;2023-02-18T04:07:21;4.95;;;0.98;;
56083;SDS011;41958;52.416;13.428;2023-02-18T04:09:46;3.58;;;0.68;;
56083;SDS011;41958;52.416;13.428;2023-02-18T04:12:12;3.83;;;0.50;;
56083;SDS011;41958;52.416;13.428;2023-02-18T04:14:37;6.38;;;0.95;;
56083;SDS011;41958;52.416;13.428;2023-02-18T04:17:02;4.97;;;0.82;;
56083;SDS011;41958;52.416;13.428;2023-02-18T04:19:27;10.15;;;0.77;;
56083;SDS011;41958;52.416;13.428;2023-02-18T04:21:53;9.95;;;0.82;;
56083;SDS011;41958;52.416;13.428;2023-02-18T04:24:18;7.05;;;0.85;;
56083;SDS011;41958;52.416;13.428;2023-02-18T04:26:43;2.60;;;0.65;;
56083;SDS011;41958;52.416;13.428;2023-02-18T04:29:08;4.05;;;0.80;;
56083;SDS011;41958;52.416;13.428;2023-02-18T04:31:34;5.95;;;0.95;;
56083;SDS011;41958;52.416;13.428;2023-02-18T04:33:59;7.55;;;0.77;;
56083;SDS011;41958;52.416;13.428;2023-02-18T04:36:24;11.32;;;1.20;;
56083;SDS011;41958;52.416;13.428;2023-02-18T04:38:50;6.32;;;0.90;;
56083;SDS011;41958;52.416;13.428;2023-02-18T04:41:15;7.05;;;0.70;;
56083;SDS011;41958;52.416;13.428;2023-02-18T04:43:40;6.57;;;0.70;;
56083;SDS011;41958;52.416;13.428;2023-02-18T04:46:05;5.68;;;0.77;;
56083;SDS011;41958;52.416;13.428;2023-02-18T04:48:31;4.00;;;0.70;;
56083;SDS011;41958;52.416;13.428;2023-02-18T04:50:56;4.65;;;0.50;;
56083;SDS011;41958;52.416;13.428;2023-02-18T04:53:21;6.13;;;1.45;;
56083;SDS011;41958;52.416;13.428;2023-02-18T04:55:50;6.00;;;0.50;;
56083;SDS011;41958;52.416;13.428;2023-02-18T04:58:16;4.57;;;0.85;;
56083;SDS011;41958;52.416;13.428;2023-02-18T05:00:42;6.95;;;0.70;;
56083;SDS011;41958;52.416;13.428;2023-02-18T05:03:07;8.18;;;0.60;;
56083;SDS011;41958;52.416;13.428;2023-02-18T05:05:32;4.57;;;0.73;;
56083;SDS011;41958;52.416;13.428;2023-02-18T05:07:57;6.45;;;0.85;;
56083;SDS011;41958;52.416;13.428;2023-02-18T05:10:22;7.43;;;0.70;;
56083;SDS011;41958;52.416;13.428;2023-02-18T05:12:48;5.57;;;0.80;;
56083;SDS011;41958;52.416;13.428;2023-02-18T05:15:13;4.13;;;0.50;;
56083;SDS011;41958;52.416;13.428;2023-02-18T05:17:39;7.47;;;1.05;;
56083;SDS011;41958;52.416;13.428;2023-02-18T05:20:04;7.13;;;0.90;;
56083;SDS011;41958;52.416;13.428;2023-02-18T05:22:30;7.45;;;0.75;;
56083;SDS011;41958;52.416;13.428;2023-02-18T05:24:55;8.50;;;0.80;;
56083;SDS011;41958;52.416;13.428;2023-02-18T05:27:21;3.42;;;0.45;;
56083;SDS011;41958;52.416;13.428;2023-02-18T05:29:46;3.08;;;0.60;;
56083;SDS011;41958;52.416;13.428;2023-02-18T05:32:11;8.63;;;0.52;;
56083;SDS011;41958;52.416;13.428;2023-02-18T05:34:36;7.15;;;0.80;;
56083;SDS011;41958;52.416;13.428;2023-02-18T05:37:02;7.47;;;0.80;;
56083;SDS011;41958;52.416;13.428;2023-02-18T05:39:27;3.00;;;0.70;;
56083;SDS011;41958;52.416;13.428;2023-02-18T05:41:52;4.65;;;0.63;;
56083;SDS011;41958;52.416;13.428;2023-02-18T05:44:17;1.63;;;0.43;;
56083;SDS011;41958;52.416;13.428;2023-02-18T05:46:56;3.33;;;0.50;;
56083;SDS011;41958;52.416;13.428;2023-02-18T05:49:22;6.07;;;0.60;;
56083;SDS011;41958;52.416;13.428;2023-02-18T05:51:48;7.68;;;1.40;;
56083;SDS011;41958;52.416;13.428;2023-02-18T05:54:13;6.57;;;0.70;;
56083;SDS011;41958;52.416;13.428;2023-02-18T05:56:38;3.60;;;0.65;;
56083;SDS011;41958;52.416;13.428;2023-02-18T05:59:04;10.05;;;0.70;;
56083;SDS011;41958;52.416;13.428;2023-02-18T06:01:29;7.15;;;0.80;;
56083;SDS011;41958;52.416;13.428;2023-02-18T06:03:54;3.13;;;0.38;;
56083;SDS011;41958;52.416;13.428;2023-02-18T06:06:20;5.22;;;0.40;;
56083;SDS011;41958;52.416;13.428;2023-02-18T06:08:45;6.82;;;0.80;;
56083;SDS011;41958;52.416;13.428;2023-02-18T06:11:10;4.15;;;1.05;;
56083;SDS011;41958;52.416;13.428;2023-02-18T06:13:35;3.25;;;0.60;;
56083;SDS011;41958;52.416;13.428;2023-02-18T06:16:01;3.53;;;0.60;;
56083;SDS011;41958;52.416;13.428;2023-02-18T06:18:26;5.13;;;0.80;;
56083;SDS011;41958;52.416;13.428;2023-02-18T06:20:51;2.60;;;0.40;;
56083;SDS011;41958;52.416;13.428;2023-02-18T06:23:16;6.18;;;1.23;;
56083;SDS011;41958;52.416;13.428;2023-02-18T06:25:42;5.15;;;0.60;;
56083;SDS011;41958;52.416;13.428;2023-02-18T06:28:07;3.60;;;0.60;;
56083;SDS011;41958;52.416;13.428;2023-02-18T06:30:32;4.85;;;0.60;;
56083;SDS011;41958;52.416;13.428;2023-02-18T06:32:58;6.03;;;0.60;;
56083;SDS011;41958;52.416;13.428;2023-02-18T06:35:23;4.60;;;0.52;;
56083;SDS011;41958;52.416;13.428;2023-02-18T06:37:48;6.80;;;1.75;;
56083;SDS011;41958;52.416;13.428;2023-02-18T06:40:14;7.32;;;0.90;;
56083;SDS011;41958;52.416;13.428;2023-02-18T06:42:39;5.38;;;0.50;;
56083;SDS011;41958;52.416;13.428;2023-02-18T06:45:05;3.97;;;0.63;;
56083;SDS011;41958;52.416;13.428;2023-02-18T06:47:31;3.20;;;0.47;;
56083;SDS011;41958;52.416;13.428;2023-02-18T06:49:57;4.43;;;0.60;;
56083;SDS011;41958;52.416;13.428;2023-02-18T06:52:22;7.95;;;0.70;;
56083;SDS011;41958;52.416;13.428;2023-02-18T06:54:48;5.90;;;0.50;;
56083;SDS011;41958;52.416;13.428;2023-02-18T06:57:13;4.07;;;0.60;;
56083;SDS011;41958;52.416;13.428;2023-02-18T06:59:38;4.20;;;1.10;;
56083;SDS011;41958;52.416;13.428;2023-02-18T07:02:03;2.75;;;0.40;;
56083;SDS011;41958;52.416;13.428;2023-02-18T07:04:29;3.53;;;0.47;;
56083;SDS011;41958;52.416;13.428;2023-02-18T07:06:54;3.72;;;0.63;;
56083;SDS011;41958;52.416;13.428;2023-02-18T07:09:19;5.70;;;0.50;;
56083;SDS011;41958;52.416;13.428;2023-02-18T07:11:44;2.50;;;0.60;;
56083;SDS011;41958;52.416;13.428;2023-02-18T07:14:10;2.65;;;0.50;;
56083;SDS011;41958;52.416;13.428;2023-02-18T07:16:35;9.07;;;0.70;;
56083;SDS011;41958;52.416;13.428;2023-02-18T07:19:00;3.30;;;0.50;;
56083;SDS011;41958;52.416;13.428;2023-02-18T07:21:25;6.68;;;0.98;;
56083;SDS011;41958;52.416;13.428;2023-02-18T07:23:51;1.85;;;0.30;;
56083;SDS011;41958;52.416;13.428;2023-02-18T07:26:16;4.28;;;0.60;;
56083;SDS011;41958;52.416;13.428;2023-02-18T07:28:41;2.10;;;0.40;;
56083;SDS011;41958;52.416;13.428;2023-02-18T07:31:07;0.75;;;0.47;;
56083;SDS011;41958;52.416;13.428;2023-02-18T07:33:32;3.47;;;0.60;;
56083;SDS011;41958;52.416;13.428;2023-02-18T07:35:58;1.88;;;0.35;;
56083;SDS011;41958;52.416;13.428;2023-02-18T07:38:25;5.35;;;0.40;;
56083;SDS011;41958;52.416;13.428;2023-02-18T07:40:51;3.50;;;0.77;;
56083;SDS011;41958;52.416;13.428;2023-02-18T07:43:17;2.03;;;0.57;;
56083;SDS011;41958;52.416;13.428;2023-02-18T07:45:42;1.60;;;0.30;;
56083;SDS011;41958;52.416;13.428;2023-02-18T07:48:08;3.28;;;0.55;;
56083;SDS011;41958;52.416;13.428;2023-02-18T07:50:34;2.65;;;0.40;;
56083;SDS011;41958;52.416;13.428;2023-02-18T07:53:01;2.80;;;0.35;;
56083;SDS011;41958;52.416;13.428;2023-02-18T07:55:28;6.05;;;0.50;;
56083;SDS011;41958;52.416;13.428;2023-02-18T07:58:13;3.08;;;0.75;;
56083;SDS011;41958;52.416;13.428;2023-02-18T08:00:38;4.47;;;0.50;;
56083;SDS011;41958;52.416;13.428;2023-02-18T08:03:04;7.10;;;0.70;;
56083;SDS011;41958;52.416;13.428;2023-02-18T08:05:29;3.30;;;0.70;;
56083;SDS011;41958;52.416;13.428;2023-02-18T08:07:54;7.13;;;0.63;;
56083;SDS011;41958;52.416;13.428;2023-02-18T08:10:20;1.52;;;0.40;;
56083;SDS011;41958;52.416;13.428;2023-02-18T08:12:45;5.75;;;0.63;;
56083;SDS011;41958;52.416;13.428;2023-02-18T08:15:10;4.03;;;0.60;;
56083;SDS011;41958;52.416;13.428;2023-02-18T08:17:36;4.65;;;0.70;;
56083;SDS011;41958;52.416;13.428;2023-02-18T08:20:01;3.50;;;0.30;;
56083;SDS011;41958;52.416;13.428;2023-02-18T08:22:26;3.50;;;0.80;;
56083;SDS011;41958;52.416;13.428;2023-02-18T08:24:54;5.03;;;0.70;;
56083;SDS011;41958;52.416;13.428;2023-02-18T08:27:20;5.90;;;0.70;;
56083;SDS011;41958;52.416;13.428;2023-02-18T08:29:45;5.78;;;0.73;;
56083;SDS011;41958;52.416;13.428;2023-02-18T08:32:11;5.38;;;0.70;;
56083;SDS011;41958;52.416;13.428;2023-02-18T08:34:37;4.05;;;0.50;;
56083;SDS011;41958;52.416;13.428;2023-02-18T08:37:02;6.65;;;0.90;;
56083;SDS011;41958;52.416;13.428;2023-02-18T08:39:28;10.50;;;0.98;;
56083;SDS011;41958;52.416;13.428;2023-02-18T08:41:58;5.25;;;0.80;;
56083;SDS011;41958;52.416;13.428;2023-02-18T08:44:23;4.88;;;0.75;;
56083;SDS011;41958;52.416;13.428;2023-02-18T08:46:48;7.60;;;1.02;;
56083;SDS011;41958;52.416;13.428;2023-02-18T08:49:14;5.10;;;0.68;;
56083;SDS011;41958;52.416;13.428;2023-02-18T08:51:40;4.10;;;0.85;;
56083;SDS011;41958;52.416;13.428;2023-02-18T08:54:05;5.78;;;0.80;;
56083;SDS011;41958;52.416;13.428;2023-02-18T08:56:30;5.95;;;0.43;;
56083;SDS011;41958;52.416;13.428;2023-02-18T08:58:57;5.43;;;0.68;;
56083;SDS011;41958;52.416;13.428;2023-02-18T09:01:22;7.85;;;0.98;;
56083;SDS011;41958;52.416;13.428;2023-02-18T09:03:47;5.45;;;0.75;;
56083;SDS011;41958;52.416;13.428;2023-02-18T09:06:13;6.38;;;1.42;;
56083;SDS011;41958;52.416;13.428;2023-02-18T09:08:38;4.57;;;0.80;;
56083;SDS011;41958;52.416;13.428;2023-02-18T09:11:03;6.65;;;0.90;;
56083;SDS011;41958;52.416;13.428;2023-02-18T09:13:29;3.53;;;0.77;;
56083;SDS011;41958;52.416;13.428;2023-02-18T09:15:55;3.83;;;0.65;;
56083;SDS011;41958;52.416;13.428;2023-02-18T09:18:25;4.32;;;0.73;;
56083;SDS011;41958;52.416;13.428;2023-02-18T09:20:50;2.60;;;0.75;;
56083;SDS011;41958;52.416;13.428;2023-02-18T09:23:16;6.28;;;1.10;;
56083;SDS011;41958;52.416;13.428;2023-02-18T09:25:41;7.53;;;0.82;;
56083;SDS011;41958;52.416;13.428;2023-02-18T09:28:07;3.90;;;0.80;;
56083;SDS011;41958;52.416;13.428;2023-02-18T09:30:32;5.68;;;0.90;;
56083;SDS011;41958;52.416;13.428;2023-02-18T09:32:57;4.05;;;1.00;;
56083;SDS011;41958;52.416;13.428;2023-02-18T09:35:22;10.20;;;1.60;;
56083;SDS011;41958;52.416;13.428;2023-02-18T09:37:48;6.50;;;1.17;;
56083;SDS011;41958;52.416;13.428;2023-02-18T09:40:20;6.30;;;1.10;;
56083;SDS011;41958;52.416;13.428;2023-02-18T09:42:51;4.38;;;1.15;;
56083;SDS011;41958;52.416;13.428;2023-02-18T09:45:18;7.97;;;1.33;;
56083;SDS011;41958;52.416;13.428;2023-02-18T09:47:45;4.60;;;1.10;;
56083;SDS011;41958;52.416;13.428;2023-02-18T09:50:13;10.27;;;2.08;;
56083;SDS011;41958;52.416;13.428;2023-02-18T09:52:48;7.55;;;1.75;;
56083;SDS011;41958;52.416;13.428;2023-02-18T09:55:17;6.82;;;1.30;;
56083;SDS011;41958;52.416;13.428;2023-02-18T09:57:57;9.10;;;1.40;;
56083;SDS011;41958;52.416;13.428;2023-02-18T10:00:38;9.05;;;1.10;;
56083;SDS011;41958;52.416;13.428;2023-02-18T10:03:11;10.57;;;1.15;;
56083;SDS011;41958;52.416;13.428;2023-02-18T10:05:40;5.72;;;1.45;;
56083;SDS011;41958;52.416;13.428;2023-02-18T10:08:38;6.35;;;1.27;;
56083;SDS011;41958;52.416;13.428;2023-02-18T10:11:05;11.48;;;1.70;;
56083;SDS011;41958;52.416;13.428;2023-02-18T10:13:37;5.50;;;1.30;;
56083;SDS011;41958;52.416;13.428;2023-02-18T10:16:04;6.10;;;1.40;;
56083;SDS011;41958;52.416;13.428;2023-02-18T10:18:31;8.05;;;1.58;;
56083;SDS011;41958;52.416;13.428;2023-02-18T10:21:06;8.15;;;2.05;;
56083;SDS011;41958;52.416;13.428;2023-02-18T10:23:36;7.43;;;1.67;;
56083;SDS011;41958;52.416;13.428;2023-02-18T10:26:05;4.22;;;1.23;;
56083;SDS011;41958;52.416;13.428;2023-02-18T10:28:34;7.63;;;1.70;;
56083;SDS011;41958;52.416;13.428;2023-02-18T10:31:02;8.88;;;1.40;;
56083;SDS011;41958;52.416;13.428;2023-02-18T10:33:34;9.10;;;1.75;;
56083;SDS011;41958;52.416;13.428;2023-02-18T10:36:15;5.90;;;1.48;;
56083;SDS011;41958;52.416;13.428;2023-02-18T10:41:48;8.30;;;1.95;;
56083;SDS011;41958;52.416;13.428;2023-02-18T10:44:55;4.65;;;1.45;;
56083;SDS011;41958;52.416;13.428;2023-02-18T10:47:29;6.05;;;1.17;;
56083;SDS011;41958;52.416;13.428;2023-02-18T10:50:24;5.15;;;1.20;;
56083;SDS011;41958;52.416;13.428;2023-02-18T10:52:48;10.75;;;1.35;;
56083;SDS011;41958;52.416;13.428;2023-02-18T10:55:16;4.30;;;1.33;;
56083;SDS011;41958;52.416;13.428;2023-02-18T10:57:46;5.60;;;1.00;;
56083;SDS011;41958;52.416;13.428;2023-02-18T11:02:38;4.93;;;1.27;;
56083;SDS011;41958;52.416;13.428;2023-02-18T11:05:11;8.65;;;1.30;;
56083;SDS011;41958;52.416;13.428;2023-02-18T11:07:52;5.53;;;1.17;;
56083;SDS011;41958;52.416;13.428;2023-02-18T11:10:24;6.72;;;1.35;;
56083;SDS011;41958;52.416;13.428;2023-02-18T11:12:54;8.02;;;1.67;;
56083;SDS011;41958;52.416;13.428;2023-02-18T11:15:22;5.18;;;1.30;;
56083;SDS011;41958;52.416;13.428;2023-02-18T11:17:50;6.22;;;1.23;;
56083;SDS011;41958;52.416;13.428;2023-02-18T11:20:23;3.35;;;1.00;;
56083;SDS011;41958;52.416;13.428;2023-02-18T11:22:48;5.25;;;1.17;;
56083;SDS011;41958;52.416;13.428;2023-02-18T11:25:21;3.75;;;0.88;;
56083;SDS011;41958;52.416;13.428;2023-02-18T11:27:54;3.15;;;1.10;;
56083;SDS011;41958;52.416;13.428;2023-02-18T11:30:22;5.80;;;0.98;;
56083;SDS011;41958;52.416;13.428;2023-02-18T11:32:52;2.03;;;0.93;;
56083;SDS011;41958;52.416;13.428;2023-02-18T11:35:24;2.53;;;0.88;;
56083;SDS011;41958;52.416;13.428;2023-02-18T11:37:51;5.32;;;0.93;;
56083;SDS011;41958;52.416;13.428;2023-02-18T11:40:21;2.45;;;0.80;;
56083;SDS011;41958;52.416;13.428;2023-02-18T11:42:49;3.42;;;0.95;;
56083;SDS011;41958;52.416;13.428;2023-02-18T11:45:25;3.90;;;0.80;;
56083;SDS011;41958;52.416;13.428;2023-02-18T11:48:13;2.13;;;1.25;;
56083;SDS011;41958;52.416;13.428;2023-02-18T11:50:49;1.63;;;0.88;;
56083;SDS011;41958;52.416;13.428;2023-02-18T11:53:24;1.88;;;1.00;;
56083;SDS011;41958;52.416;13.428;2023-02-18T11:55:57;1.75;;;1.10;;
56083;SDS011;41958;52.416;13.428;2023-02-18T11:58:24;2.30;;;1.20;;
56083;SDS011;41958;52.416;13.428;2023-02-18T12:00:50;3.85;;;1.40;;
56083;SDS011;41958;52.416;13.428;2023-02-18T12:03:27;3.00;;;1.40;;
56083;SDS011;41958;52.416;13.428;2023-02-18T12:05:59;2.00;;;1.30;;
56083;SDS011;41958;52.416;13.428;2023-02-18T12:08:27;3.58;;;2.00;;
56083;SDS011;41958;52.416;13.428;2023-02-18T12:11:00;2.40;;;1.65;;
56083;SDS011;41958;52.416;13.428;2023-02-18T12:13:39;3.83;;;1.98;;
56083;SDS011;41958;52.416;13.428;2023-02-18T12:16:16;5.10;;;2.72;;
56083;SDS011;41958;52.416;13.428;2023-02-18T12:18:53;3.83;;;2.72;;
56083;SDS011;41958;52.416;13.428;2023-02-18T12:24:17;5.15;;;2.72;;
56083;SDS011;41958;52.416;13.428;2023-02-18T12:29:23;6.72;;;3.17;;
56083;SDS011;41958;52.416;13.428;2023-02-18T12:32:23;5.85;;;2.85;;
56083;SDS011;41958;52.416;13.428;2023-02-18T12:38:23;6.78;;;3.00;;
56083;SDS011;41958;52.416;13.428;2023-02-18T12:44:12;7.63;;;3.17;;
56083;SDS011;41958;52.416;13.428;2023-02-18T12:52:13;8.25;;;4.05;;
56083;SDS011;41958;52.416;13.428;2023-02-18T12:54:54;7.70;;;3.60;;
56083;SDS011;41958;52.416;13.428;2023-02-18T12:57:42;5.85;;;3.30;;
56083;SDS011;41958;52.416;13.428;2023-02-18T13:03:17;6.13;;;3.28;;
56083;SDS011;41958;52.416;13.428;2023-02-18T13:09:02;6.68;;;3.15;;
56083;SDS011;41958;52.416;13.428;2023-02-18T13:14:25;5.78;;;2.38;;
56083;SDS011;41958;52.416;13.428;2023-02-18T13:16:56;4.35;;;2.40;;
56083;SDS011;41958;52.416;13.428;2023-02-18T13:19:25;2.80;;;2.05;;
56083;SDS011;41958;52.416;13.428;2023-02-18T13:21:57;3.55;;;2.28;;
56083;SDS011;41958;52.416;13.428;2023-02-18T13:27:07;2.47;;;2.15;;
56083;SDS011;41958;52.416;13.428;2023-02-18T13:29:55;1.92;;;1.50;;
56083;SDS011;41958;52.416;13.428;2023-02-18T13:40:48;2.20;;;1.70;;
56083;SDS011;41958;52.416;13.428;2023-02-18T13:46:24;3.08;;;2.17;;
56083;SDS011;41958;52.416;13.428;2023-02-18T13:48:45;2.00;;;1.80;;
56083;SDS011;41958;52.416;13.428;2023-02-18T13:56:45;3.67;;;2.58;;
56083;SDS011;41958;52.416;13.428;2023-02-18T13:59:16;2.28;;;2.08;;
56083;SDS011;41958;52.416;13.428;2023-02-18T14:01:50;2.50;;;1.92;;
56083;SDS011;41958;52.416;13.428;2023-02-18T14:10:00;3.80;;;2.38;;
56083;SDS011;41958;52.416;13.428;2023-02-18T14:23:16;2.20;;;2.00;;
56083;SDS011;41958;52.416;13.428;2023-02-18T14:26:07;3.03;;;2.10;;
56083;SDS011;41958;52.416;13.428;2023-02-18T14:28:47;2.80;;;2.08;;
56083;SDS011;41958;52.416;13.428;2023-02-18T14:36:31;2.45;;;2.25;;
56083;SDS011;41958;52.416;13.428;2023-02-18T14:39:25;2.28;;;1.80;;
56083;SDS011;41958;52.416;13.428;2023-02-18T14:42:19;2.55;;;2.35;;
56083;SDS011;41958;52.416;13.428;2023-02-18T14:50:34;2.80;;;2.33;;
56083;SDS011;41958;52.416;13.428;2023-02-18T14:53:06;2.15;;;1.95;;
56083;SDS011;41958;52.416;13.428;2023-02-18T14:55:38;2.30;;;1.90;;
56083;SDS011;41958;52.416;13.428;2023-02-18T14:58:23;1.67;;;1.45;;
56083;SDS011;41958;52.416;13.428;2023-02-18T15:00:53;2.65;;;1.73;;
56083;SDS011;41958;52.416;13.428;2023-02-18T15:03:19;1.98;;;1.40;;
56083;SDS011;41958;52.416;13.428;2023-02-18T15:05:46;2.60;;;1.38;;
56083;SDS011;41958;52.416;13.428;2023-02-18T15:08:14;2.53;;;1.60;;
56083;SDS011;41958;52.416;13.428;2023-02-18T15:10:48;1.23;;;1.00;;
56083;SDS011;41958;52.416;13.428;2023-02-18T15:13:24;1.05;;;0.77;;
56083;SDS011;41958;52.416;13.428;2023-02-18T15:15:53;0.90;;;0.80;;
56083;SDS011;41958;52.416;13.428;2023-02-18T15:18:37;0.70;;;0.60;;
56083;SDS011;41958;52.416;13.428;2023-02-18T15:21:06;0.80;;;0.80;;
56083;SDS011;41958;52.416;13.428;2023-02-18T15:23:38;1.20;;;1.10;;
56083;SDS011;41958;52.416;13.428;2023-02-18T15:26:05;0.57;;;0.57;;
56083;SDS011;41958;52.416;13.428;2023-02-18T15:28:33;0.75;;;0.60;;
56083;SDS011;41958;52.416;13.428;2023-02-18T15:31:01;1.05;;;0.80;;
56083;SDS011;41958;52.416;13.428;2023-02-18T15:33:27;0.73;;;0.73;;
56083;SDS011;41958;52.416;13.428;2023-02-18T15:36:02;0.82;;;0.63;;
56083;SDS011;41958;52.416;13.428;2023-02-18T15:38:29;1.55;;;0.80;;
56083;SDS011;41958;52.416;13.428;2023-02-18T15:40:56;1.52;;;0.70;;
56083;SDS011;41958;52.416;13.428;2023-02-18T15:43:23;1.08;;;0.80;;
56083;SDS011;41958;52.416;13.428;2023-02-18T15:45:51;0.70;;;0.70;;
56083;SDS011;41958;52.416;13.428;2023-02-18T15:48:22;0.73;;;0.70;;
56083;SDS011;41958;52.416;13.428;2023-02-18T15:50:56;0.85;;;0.60;;
56083;SDS011;41958;52.416;13.428;2023-02-18T15:53:22;1.67;;;1.00;;
56083;SDS011;41958;52.416;13.428;2023-02-18T15:55:50;0.75;;;0.63;;
56083;SDS011;41958;52.416;13.428;2023-02-18T15:58:22;0.90;;;0.70;;
56083;SDS011;41958;52.416;13.428;2023-02-18T16:01:02;1.20;;;0.90;;
56083;SDS011;41958;52.416;13.428;2023-02-18T16:03:30;1.00;;;0.90;;
56083;SDS011;41958;52.416;13.428;2023-02-18T16:06:09;1.00;;;0.70;;
56083;SDS011;41958;52.416;13.428;2023-02-18T16:08:57;0.80;;;0.60;;
56083;SDS011;41958;52.416;13.428;2023-02-18T16:11:24;0.68;;;0.68;;
56083;SDS011;41958;52.416;13.428;2023-02-18T16:13:51;0.82;;;0.82;;
56083;SDS011;41958;52.416;13.428;2023-02-18T16:16:23;0.98;;;0.70;;
56083;SDS011;41958;52.416;13.428;2023-02-18T16:18:52;2.00;;;1.60;;
56083;SDS011;41958;52.416;13.428;2023-02-18T16:23:44;2.03;;;0.60;;
56083;SDS011;41958;52.416;13.428;2023-02-18T16:26:19;0.77;;;0.70;;
56083;SDS011;41958;52.416;13.428;2023-02-18T16:29:00;1.50;;;0.73;;
56083;SDS011;41958;52.416;13.428;2023-02-18T16:32:37;1.08;;;0.70;;
56083;SDS011;41958;52.416;13.428;2023-02-18T16:36:01;1.00;;;0.90;;